»·PEaware :: SWA502 KONT-KLAS

SWA502 :: KONT-KLAS

FLIGHT INFORMATION

Flight Status: Arrived
Operator:
Southwest Airlines
More flights by this operator :: More flights under this callsign
Pilot: Sanjiv S. (4490)
Aircraft: BOEING 737-800
(B738)
More flights by this aircraft type
Origin: KONT Ontario Intl
United States
Destination: KLAS McCarran Intl
United States
More flights between these airports :: More routes between these airports
Route: +SNSHN3 MISEN KEPEC6
File this flight plan on PilotEdge
Remarks:
Altitude:
(Current/Filed)
27,000ft
Speed:
(Current/Filed)
425kts
Departed: 25-Aug-18 12:23 PM
Arrived: 25-Aug-18 01:11 PM
Distance/Time
Traveled:
171nm/0:48
Distance/Time
To Go:
Arrived

Flight Plot

Page will automatically refresh every two minutes.

Flight plan parsing failed; only flown route is shown


Map Options




Map Legend


Flown Route
Filed Route
Departure Airport
Arrival Airport
Navaid (VOR, NDB)
Fix

Horizontal Profiles

Position Reports

Time Latitude Longitude Heading Altitude Ground
Speed
25-Aug-18 11:41 34.059827 -117.586572 0 942ft 0kts
25-Aug-18 11:42 34.059827 -117.586572 0 942ft 0kts
25-Aug-18 11:43 34.059827 -117.586572 0 942ft 0kts
25-Aug-18 11:44 34.059827 -117.586572 0 942ft 0kts
25-Aug-18 11:45 34.059827 -117.586572 0 942ft 0kts
25-Aug-18 11:46 34.059827 -117.586572 0 942ft 0kts
25-Aug-18 11:47 34.059827 -117.586572 0 942ft 0kts
25-Aug-18 11:48 34.059827 -117.586572 0 942ft 0kts
25-Aug-18 11:49 34.059827 -117.586572 0 942ft 0kts
25-Aug-18 11:50 34.059827 -117.586572 0 942ft 0kts
25-Aug-18 11:51 34.059827 -117.586572 0 942ft 0kts
25-Aug-18 11:52 34.059827 -117.586572 0 942ft 0kts
25-Aug-18 11:53 34.059827 -117.586572 0 942ft 0kts
25-Aug-18 11:54 34.059827 -117.586572 0 942ft 0kts
25-Aug-18 11:55 34.059827 -117.586572 0 942ft 0kts
25-Aug-18 11:56 34.059827 -117.586572 0 942ft 0kts
25-Aug-18 11:57 34.059827 -117.586572 0 942ft 0kts
25-Aug-18 11:58 34.059827 -117.586572 0 942ft 0kts
25-Aug-18 11:59 34.059827 -117.586572 0 942ft 0kts
25-Aug-18 12:00 34.059827 -117.586572 0 942ft 0kts
25-Aug-18 12:01 34.059827 -117.586572 0 942ft 0kts
25-Aug-18 12:02 34.059827 -117.586572 0 942ft 0kts
25-Aug-18 12:03 34.059827 -117.586572 0 942ft 0kts
25-Aug-18 12:04 34.059827 -117.586572 0 942ft 0kts
25-Aug-18 12:05 34.059827 -117.586572 0 942ft 0kts
25-Aug-18 12:06 34.059827 -117.586572 0 942ft 0kts
25-Aug-18 12:07 34.059827 -117.586572 0 942ft 0kts
25-Aug-18 12:08 34.059827 -117.586572 0 942ft 0kts
25-Aug-18 12:09 34.059808 -117.586569 0 942ft 1kts
25-Aug-18 12:10 34.059430 -117.587012 86 942ft 1kts
25-Aug-18 12:11 34.059432 -117.587115 90 942ft 0kts
25-Aug-18 12:12 34.059432 -117.587115 90 941ft 0kts
25-Aug-18 12:13 34.059432 -117.587115 90 941ft 0kts
25-Aug-18 12:14 34.059432 -117.587115 90 941ft 0kts
25-Aug-18 12:15 34.059432 -117.587115 90 941ft 0kts
25-Aug-18 12:16 34.059432 -117.587115 90 941ft 0kts
25-Aug-18 12:17 34.059428 -117.586590 90 941ft 10kts
25-Aug-18 12:18 34.058043 -117.582370 178 937ft 7kts
25-Aug-18 12:19 34.057912 -117.582368 179 937ft 0kts
25-Aug-18 12:20 34.057912 -117.582368 179 937ft 0kts
25-Aug-18 12:21 34.057912 -117.582368 179 937ft 0kts
25-Aug-18 12:22 34.057912 -117.582368 179 937ft 0kts
25-Aug-18 12:23 34.056904 -117.583114 267 934ft 2kts
25-Aug-18 12:24 34.056558 -117.609914 261 1105ft 178kts
25-Aug-18 12:25 34.056051 -117.660077 274 3300ft 200kts
25-Aug-18 12:26 34.064287 -117.733521 285 5358ft 267kts
25-Aug-18 12:27 34.089037 -117.806880 311 8507ft 287kts
25-Aug-18 12:28 34.141401 -117.867548 319 11003ft 322kts
25-Aug-18 12:29 34.205707 -117.932326 318 13837ft 341kts
25-Aug-18 12:30 34.282743 -117.968293 12 14870ft 352kts
25-Aug-18 12:31 34.357118 -117.908489 60 17435ft 363kts
25-Aug-18 12:32 34.379959 -117.800751 87 19820ft 370kts
25-Aug-18 12:33 34.388151 -117.683007 88 22041ft 384kts
25-Aug-18 12:34 34.409913 -117.570520 61 23931ft 405kts
25-Aug-18 12:35 34.474432 -117.462795 55 25733ft 422kts
25-Aug-18 12:36 34.543450 -117.350094 55 27071ft 437kts
25-Aug-18 12:37 34.612812 -117.236250 55 27077ft 464kts
25-Aug-18 12:38 34.687071 -117.113865 55 27074ft 475kts
25-Aug-18 12:39 34.757954 -116.996768 55 27046ft 479kts
25-Aug-18 12:40 34.833159 -116.871781 55 27022ft 481kts
25-Aug-18 12:41 34.907709 -116.747537 55 27007ft 433kts
25-Aug-18 12:42 34.972783 -116.634374 57 27023ft 425kts
25-Aug-18 12:43 35.035757 -116.522604 56 26978ft 428kts
25-Aug-18 12:44 35.100656 -116.407276 54 24181ft 418kts
25-Aug-18 12:45 35.166050 -116.322482 46 22827ft 397kts
25-Aug-18 12:46 35.240360 -116.229831 46 21404ft 389kts
25-Aug-18 12:47 35.313107 -116.138631 46 20013ft 380kts
25-Aug-18 12:48 35.384841 -116.048345 46 18639ft 371kts
25-Aug-18 12:49 35.453725 -115.961357 46 17366ft 361kts
25-Aug-18 12:50 35.521364 -115.875684 46 16051ft 355kts
25-Aug-18 12:51 35.586740 -115.792651 46 14784ft 348kts
25-Aug-18 12:52 35.649398 -115.712875 46 13571ft 326kts
25-Aug-18 12:53 35.708190 -115.637819 46 13066ft 324kts
25-Aug-18 12:54 35.774858 -115.576409 12 13072ft 325kts
25-Aug-18 12:55 35.859517 -115.568758 0 13063ft 323kts
25-Aug-18 12:56 35.940441 -115.562930 13 13035ft 324kts
25-Aug-18 12:57 35.994893 -115.494389 69 13027ft 319kts
25-Aug-18 12:58 36.022109 -115.407350 70 13023ft 298kts
25-Aug-18 12:59 36.029137 -115.320097 98 13034ft 292kts
25-Aug-18 13:00 36.021332 -115.225280 98 13052ft 293kts
25-Aug-18 13:01 36.014306 -115.128402 95 10950ft 306kts
25-Aug-18 13:02 36.013265 -115.046205 93 9328ft 295kts
25-Aug-18 13:03 36.007422 -114.937642 96 7799ft 265kts
25-Aug-18 13:04 36.004098 -114.870273 97 6695ft 222kts
25-Aug-18 13:05 36.048609 -114.818662 14 5040ft 207kts
25-Aug-18 13:06 36.084428 -114.835853 268 5044ft 194kts
25-Aug-18 13:07 36.075604 -114.901464 259 5640ft 173kts
25-Aug-18 13:08 36.074035 -114.949030 263 4994ft 183kts
25-Aug-18 13:09 36.074242 -115.005064 267 3549ft 157kts
25-Aug-18 13:10 36.074030 -115.052863 266 3298ft 152kts
25-Aug-18 13:11 36.073755 -115.101368 263 2419ft 138kts
25-Aug-18 13:12 36.073741 -115.143055 280 2094ft 40kts
25-Aug-18 13:13 36.074651 -115.145782 300 2102ft 0kts
25-Aug-18 13:14 36.075690 -115.146575 357 2104ft 4kts
25-Aug-18 13:15 36.077380 -115.146602 339 2102ft 2kts
25-Aug-18 13:16 36.079103 -115.147400 339 2101ft 12kts
25-Aug-18 13:17 36.080958 -115.147780 55 2097ft 1kts
25-Aug-18 13:18 36.080974 -115.147753 55 2097ft 0kts
25-Aug-18 13:19 36.080974 -115.147753 55 2097ft 0kts
25-Aug-18 13:20 36.080974 -115.147753 55 2097ft 0kts

Navigation Log

Ident Type
Flight plan parsing failed, navigation log unavailable